Terminal Aerodrome Forecast
Issued by NWS

Home | Current Version | Previous Version | Text Only | Print | Product List | Glossary On
Versions: 1 2 3 4 5 6 7 8 9 10 11 12 13 14 15 16 17 18
000
FTUS44 KLZK 042300
TAFPBF
TAF
KPBF 042329Z 0500/0524 22006KT P6SM SCT025 SCT040
     FM050200 13003KT P6SM SCT150
     FM050800 00000KT 6SM BR SCT015
      TEMPO 0508/0512 2SM BR BKN015
     FM051200 21005KT 6SM BR VCTS SCT015 BKN035CB
     FM051600 21006KT P6SM SCT035=

USA.gov is the U.S. government's official web portal to all federal, state and local government web resources and services.